Time;durP1;ratioP1;P1;durP2;ratioP2;P2;SDS_P1;SDS_P2;PMS_P1;PMS_P2;Temp;Humidity;BMP_temperature;BMP_pressure;BME280_temperature;BME280_humidity;BME280_pressure;Samples;Min_cycle;Max_cycle;Signal;HPM_P1;HPM_P2
2022/12/23 00:00:26;;;;;;;17.30;15.68;;;;;;;6.26;100.00;95886.91;5065107;28;20059;-70
2022/12/23 00:02:52;;;;;;;15.68;14.30;;;;;;;6.26;100.00;95881.69;5061421;28;20083;-70
2022/12/23 00:05:17;;;;;;;15.43;14.02;;;;;;;6.26;100.00;95889.53;5062852;28;20044;-70
2022/12/23 00:07:43;;;;;;;14.98;13.73;;;;;;;6.26;100.00;95899.97;5064533;28;20027;-70
2022/12/23 00:10:09;;;;;;;15.43;14.13;;;;;;;6.27;100.00;95903.44;5067160;28;20044;-70
2022/12/23 00:15:18;;;;;;;10.85;9.90;;;;;;;6.35;100.00;95906.34;5069325;28;20047;-71
2022/12/23 00:17:44;;;;;;;11.43;10.32;;;;;;;6.38;100.00;95900.06;5071271;28;20028;-65
2022/12/23 00:20:13;;;;;;;9.23;8.52;;;;;;;6.35;100.00;95897.66;5060687;28;20421;-65
2022/12/23 00:25:43;;;;;;;9.00;8.30;;;;;;;6.37;100.00;95909.66;5067451;28;20151;-65
2022/12/23 00:28:17;;;;;;;10.30;9.40;;;;;;;6.29;100.00;95896.31;5062552;28;20509;-65
2022/12/23 00:30:54;;;;;;;14.45;12.95;;;;;;;6.28;100.00;95885.00;5067597;28;20036;-65
2022/12/23 00:33:22;;;;;;;7.60;7.00;;;;;;;6.29;100.00;95876.22;5064784;28;20040;-65
2022/12/23 00:35:48;;;;;;;7.80;7.10;;;;;;;6.37;100.00;95870.44;5070320;28;20077;-60
2022/12/23 00:38:15;;;;;;;7.07;6.50;;;;;;;6.33;100.00;95876.84;5064810;28;20036;-61
2022/12/23 00:43:24;;;;;;;8.93;8.25;;;;;;;6.34;100.00;95841.91;5067056;28;20040;-60
2022/12/23 00:45:50;;;;;;;8.48;7.82;;;;;;;6.38;100.00;95856.41;5067042;28;20044;-60
2022/12/23 00:50:59;;;;;;;9.55;8.82;;;;;;;6.24;100.00;95833.88;5070591;28;20073;-65
2022/12/23 00:53:25;;;;;;;10.48;9.57;;;;;;;6.29;100.00;95815.25;5069841;28;20107;-60
2022/12/23 00:55:51;;;;;;;10.25;9.45;;;;;;;6.24;100.00;95820.81;5069515;28;20480;-65
2022/12/23 00:58:18;;;;;;;10.93;10.15;;;;;;;6.23;100.00;95805.25;5070779;28;20036;-65
2022/12/23 01:06:13;;;;;;;11.68;10.65;;;;;;;6.16;100.00;95808.31;5064912;28;20075;-64
2022/12/23 01:08:39;;;;;;;12.35;11.40;;;;;;;6.14;100.00;95812.00;5068691;28;20418;-65
2022/12/23 01:11:06;;;;;;;12.73;11.52;;;;;;;6.35;100.00;95820.03;5067399;28;20071;-60
2022/12/23 01:13:32;;;;;;;13.57;12.38;;;;;;;6.23;100.00;95821.75;5064001;28;20196;-64
2022/12/23 01:16:16;;;;;;;11.98;10.98;;;;;;;6.20;100.00;95810.72;5067129;28;20035;-70
2022/12/23 01:18:41;;;;;;;12.85;11.82;;;;;;;6.19;100.00;95817.72;5067335;28;20025;-70
2022/12/23 01:21:09;;;;;;;12.88;11.85;;;;;;;6.26;100.00;95811.06;5068146;28;20051;-70
2022/12/23 01:23:35;;;;;;;13.15;12.15;;;;;;;6.28;100.00;95826.66;5062820;28;20097;-70
2022/12/23 01:26:03;;;;;;;12.45;11.45;;;;;;;6.42;100.00;95826.50;5068445;28;20521;-70
2022/12/23 01:28:30;;;;;;;12.77;11.68;;;;;;;6.38;100.00;95842.53;5067021;28;20032;-70
2022/12/23 01:30:55;;;;;;;13.32;12.23;;;;;;;6.29;100.00;95836.19;5067433;28;20031;-58
2022/12/23 01:33:21;;;;;;;10.93;10.02;;;;;;;6.24;100.00;95843.53;5066743;28;20040;-64
2022/12/23 01:35:46;;;;;;;10.30;9.45;;;;;;;6.18;100.00;95850.03;5062898;28;20048;-65
2022/12/23 01:38:12;;;;;;;15.25;13.85;;;;;;;6.15;100.00;95839.81;5068742;28;20044;-64
2022/12/23 01:40:44;;;;;;;25.88;22.98;;;;;;;6.13;100.00;95841.69;5065775;28;20041;-64
2022/12/23 01:43:15;;;;;;;9.57;8.88;;;;;;;6.19;100.00;95843.84;5069206;28;20043;-64
2022/12/23 01:45:40;;;;;;;10.20;9.38;;;;;;;6.22;100.00;95835.78;5068419;28;20113;-65
2022/12/23 01:48:38;;;;;;;11.95;11.02;;;;;;;6.34;100.00;95841.91;5067612;28;20079;-64
2022/12/23 01:51:10;;;;;;;10.00;9.23;;;;;;;6.22;100.00;95846.25;5031281;28;20081;-62
2022/12/23 01:53:49;;;;;;;10.13;9.32;;;;;;;6.20;100.00;95853.38;5062357;28;20123;-59
2022/12/23 01:56:27;;;;;;;11.73;10.52;;;;;;;6.17;100.00;95853.59;5055255;28;20827;-60
2022/12/23 01:58:58;;;;;;;48.95;35.83;;;;;;;6.15;100.00;95852.88;5060319;28;20028;-60
2022/12/23 02:04:12;;;;;;;8.02;7.22;;;;;;;6.21;100.00;95862.06;5061777;28;20124;-60
2022/12/23 02:09:27;;;;;;;7.88;7.35;;;;;;;6.16;100.00;95867.59;5063430;28;20523;-63
2022/12/23 02:12:17;;;;;;;11.32;10.43;;;;;;;6.11;100.00;95859.28;5063687;28;20501;-59
2022/12/23 02:18:15;;;;;;;13.85;12.68;;;;;;;6.14;100.00;95867.72;5051943;28;20090;-58
2022/12/23 02:21:21;;;;;;;12.27;11.27;;;;;;;6.10;100.00;95868.88;5065660;28;20051;-59
2022/12/23 02:24:25;;;;;;;12.20;11.10;;;;;;;6.11;100.00;95862.69;5019297;28;20052;-58
2022/12/23 02:27:25;;;;;;;11.65;10.68;;;;;;;6.15;100.00;95876.41;5066702;28;20090;-58
2022/12/23 02:30:18;;;;;;;11.63;10.65;;;;;;;6.13;100.00;95879.09;5066403;28;20414;-61
2022/12/23 02:33:09;;;;;;;13.75;12.65;;;;;;;6.12;100.00;95876.63;5064413;28;20507;-60
2022/12/23 02:35:59;;;;;;;12.38;11.38;;;;;;;6.09;100.00;95869.81;5063976;28;20032;-60
2022/12/23 02:38:55;;;;;;;13.57;12.35;;;;;;;6.08;100.00;95856.84;5062742;28;20094;-60
2022/12/23 02:41:56;;;;;;;12.32;11.32;;;;;;;6.06;100.00;95856.97;5067476;28;20035;-60
2022/12/23 02:44:40;;;;;;;11.75;10.85;;;;;;;6.06;100.00;95856.97;5065126;28;20032;-60
2022/12/23 02:47:20;;;;;;;18.98;17.17;;;;;;;6.07;100.00;95853.41;5066413;28;20529;-59
2022/12/23 02:49:56;;;;;;;14.13;13.02;;;;;;;6.09;100.00;95855.94;5064011;28;20039;-70
2022/12/23 02:52:28;;;;;;;14.88;13.63;;;;;;;6.07;100.00;95857.78;5065769;28;20081;-64
2022/12/23 02:54:59;;;;;;;14.48;13.27;;;;;;;6.06;100.00;95863.97;5067166;28;20059;-64
2022/12/23 02:57:30;;;;;;;14.60;13.40;;;;;;;6.08;100.00;95851.63;5067468;28;20060;-64
2022/12/23 02:59:58;;;;;;;13.48;12.43;;;;;;;6.10;100.00;95852.38;5065898;28;20032;-64
2022/12/23 03:02:24;;;;;;;14.13;12.88;;;;;;;6.14;100.00;95848.59;5065074;28;20576;-64
2022/12/23 03:04:49;;;;;;;14.15;12.98;;;;;;;6.11;100.00;95854.03;5065446;28;20036;-64
2022/12/23 03:07:40;;;;;;;13.57;12.40;;;;;;;6.08;100.00;95835.94;5067480;28;20477;-65
2022/12/23 03:10:08;;;;;;;29.42;25.38;;;;;;;6.07;100.00;95834.28;5066544;28;20051;-61
2022/12/23 03:12:46;;;;;;;41.13;31.60;;;;;;;6.06;100.00;95830.84;5065892;28;20071;-62
2022/12/23 03:15:33;;;;;;;40.75;29.23;;;;;;;6.06;100.00;95830.00;5065662;28;20547;-62
2022/12/23 03:18:04;;;;;;;19.17;17.00;;;;;;;6.07;100.00;95844.72;5066403;28;20510;-62
2022/12/23 03:20:51;;;;;;;16.98;15.15;;;;;;;6.06;100.00;95845.66;5065250;28;20091;-62
2022/12/23 03:23:54;;;;;;;16.35;14.27;;;;;;;6.07;100.00;95850.81;5066910;28;20040;-62
2022/12/23 03:27:08;;;;;;;24.63;20.75;;;;;;;6.10;100.00;95829.66;5042713;28;20449;-61
2022/12/23 03:29:56;;;;;;;11.55;10.55;;;;;;;6.15;100.00;95842.41;5038534;28;20028;-64
2022/12/23 03:32:25;;;;;;;10.65;9.75;;;;;;;6.09;100.00;95858.53;5067292;28;20537;-65
2022/12/23 03:34:54;;;;;;;10.45;9.45;;;;;;;6.03;100.00;95846.75;5067482;28;20024;-64
2022/12/23 03:37:23;;;;;;;12.20;11.13;;;;;;;6.01;100.00;95844.22;5067461;28;20025;-64
2022/12/23 03:39:53;;;;;;;22.75;19.95;;;;;;;6.03;100.00;95851.97;5066545;28;20025;-65
2022/12/23 03:42:27;;;;;;;12.57;11.50;;;;;;;6.08;100.00;95851.63;5066660;28;20135;-65
2022/12/23 03:44:57;;;;;;;12.85;11.75;;;;;;;6.09;100.00;95845.47;5066555;28;20533;-60
2022/12/23 03:47:31;;;;;;;12.00;11.05;;;;;;;6.05;100.00;95838.78;5066917;28;20081;-61
2022/12/23 03:50:05;;;;;;;61.70;45.22;;;;;;;6.01;100.00;95828.53;5067723;28;20407;-60
2022/12/23 03:52:36;;;;;;;28.73;25.60;;;;;;;6.00;100.00;95821.63;5069095;28;20024;-59
2022/12/23 03:55:06;;;;;;;18.85;17.17;;;;;;;6.04;100.00;95806.59;5065344;28;20736;-59
2022/12/23 03:57:46;;;;;;;14.38;13.18;;;;;;;5.99;100.00;95806.88;5064100;28;20032;-59
2022/12/23 04:00:11;;;;;;;14.75;13.50;;;;;;;5.98;100.00;95818.28;5067927;28;20086;-60
2022/12/23 04:02:58;;;;;;;15.13;13.73;;;;;;;6.03;100.00;95820.59;5063604;28;20044;-59
2022/12/23 04:05:32;;;;;;;13.23;12.13;;;;;;;6.23;100.00;95816.53;5054002;28;20037;-61
2022/12/23 04:08:12;;;;;;;9.85;9.13;;;;;;;6.13;100.00;95820.78;5069320;28;20037;-62
2022/12/23 04:10:37;;;;;;;10.07;9.30;;;;;;;6.08;100.00;95809.81;5067883;28;20040;-64
2022/12/23 04:13:02;;;;;;;11.30;10.40;;;;;;;6.06;100.00;95807.31;5064956;28;20098;-64
2022/12/23 04:15:28;;;;;;;12.15;11.20;;;;;;;6.22;100.00;95804.41;5070305;28;20111;-64
2022/12/23 04:17:55;;;;;;;12.40;11.50;;;;;;;6.14;100.00;95798.91;5065022;28;20104;-64
2022/12/23 04:20:21;;;;;;;9.32;8.63;;;;;;;6.29;100.00;95783.88;5064315;28;20103;-64
2022/12/23 04:22:47;;;;;;;14.77;13.50;;;;;;;6.42;100.00;95782.03;5066827;28;20477;-63
2022/12/23 04:25:14;;;;;;;11.38;10.40;;;;;;;6.21;100.00;95771.38;5069520;28;20522;-64
2022/12/23 04:27:40;;;;;;;10.73;9.82;;;;;;;6.14;100.00;95765.75;5064922;28;20115;-59
2022/12/23 04:30:07;;;;;;;13.05;11.85;;;;;;;6.15;100.00;95766.59;5066988;28;20124;-59
2022/12/23 04:32:33;;;;;;;10.55;9.65;;;;;;;6.14;100.00;95770.97;5067797;28;20038;-60
2022/12/23 04:34:58;;;;;;;8.82;8.10;;;;;;;6.12;100.00;95779.91;5050306;28;20119;-59
2022/12/23 04:37:24;;;;;;;8.68;8.07;;;;;;;6.12;100.00;95799.03;5065600;28;20079;-60
2022/12/23 04:39:49;;;;;;;24.55;22.60;;;;;;;6.24;100.00;95810.34;5070818;28;20066;-60
2022/12/23 04:42:14;;;;;;;16.85;15.45;;;;;;;6.19;100.00;95820.31;5068331;28;20124;-59
2022/12/23 04:44:40;;;;;;;14.77;12.23;;;;;;;6.20;100.00;95826.41;5070064;28;20037;-58
2022/12/23 04:47:05;;;;;;;18.17;16.33;;;;;;;6.20;100.00;95797.66;5066080;28;20052;-61
2022/12/23 04:49:31;;;;;;;11.52;10.55;;;;;;;6.24;100.00;95791.25;5066330;28;20035;-62
2022/12/23 04:51:56;;;;;;;10.40;9.55;;;;;;;6.26;100.00;95787.53;5067683;28;20028;-62
2022/12/23 04:54:22;;;;;;;8.82;8.18;;;;;;;6.27;100.00;95783.97;5070140;28;20020;-62
2022/12/23 04:56:47;;;;;;;6.20;5.80;;;;;;;6.30;100.00;95786.41;5064978;28;20029;-61
2022/12/23 04:59:12;;;;;;;8.18;7.57;;;;;;;6.30;100.00;95790.78;5068810;28;20674;-62
2022/12/23 05:01:38;;;;;;;11.38;10.38;;;;;;;6.27;100.00;95783.97;5055353;28;20032;-61
2022/12/23 05:04:03;;;;;;;9.63;8.85;;;;;;;6.24;100.00;95786.00;5070037;28;20033;-64
2022/12/23 05:06:29;;;;;;;11.43;10.38;;;;;;;6.23;100.00;95797.41;5067797;28;20041;-58
2022/12/23 05:08:54;;;;;;;8.90;8.20;;;;;;;6.08;100.00;95801.97;5071351;28;20037;-58
2022/12/23 05:11:19;;;;;;;25.63;16.90;;;;;;;6.02;100.00;95792.81;5068188;28;20163;-58
2022/12/23 05:13:45;;;;;;;18.83;15.98;;;;;;;5.97;100.00;95789.66;5070112;28;20040;-58
2022/12/23 05:16:10;;;;;;;9.85;8.95;;;;;;;5.99;100.00;95812.13;5063152;28;20499;-58
2022/12/23 05:18:35;;;;;;;8.88;8.13;;;;;;;5.97;100.00;95821.84;5056426;28;20128;-58
2022/12/23 05:21:01;;;;;;;9.18;8.45;;;;;;;5.97;100.00;95821.84;5054651;28;20124;-58
2022/12/23 05:23:26;;;;;;;9.98;9.20;;;;;;;5.98;100.00;95815.69;5055226;28;20069;-69
2022/12/23 05:25:53;;;;;;;9.85;8.55;;;;;;;5.97;100.00;95800.94;5062098;28;20029;-60
2022/12/23 05:28:20;;;;;;;9.32;8.65;;;;;;;6.00;100.00;95803.31;5052200;28;20025;-60
2022/12/23 05:30:45;;;;;;;9.68;8.88;;;;;;;6.04;100.00;95800.50;5057768;28;20024;-60
2022/12/23 05:33:10;;;;;;;10.25;9.55;;;;;;;6.06;100.00;95804.69;5058918;28;20029;-60
2022/12/23 05:35:36;;;;;;;8.13;7.53;;;;;;;6.05;100.00;95796.94;5053086;28;20525;-59
2022/12/23 05:38:02;;;;;;;51.17;38.90;;;;;;;6.07;100.00;95777.63;5045846;28;20064;-60
2022/12/23 05:40:28;;;;;;;18.55;16.85;;;;;;;6.07;100.00;95787.22;5064951;28;20045;-60
2022/12/23 05:42:53;;;;;;;6.90;6.40;;;;;;;6.26;100.00;95777.09;5051977;28;20037;-63
2022/12/23 05:45:19;;;;;;;7.57;6.97;;;;;;;6.28;100.00;95792.69;5056199;28;20055;-62
2022/12/23 05:47:45;;;;;;;8.32;7.53;;;;;;;6.13;100.00;95786.78;5070315;28;20036;-62
2022/12/23 05:50:10;;;;;;;9.55;8.75;;;;;;;6.02;100.00;95780.56;5056944;28;20082;-62
2022/12/23 05:52:36;;;;;;;9.80;9.00;;;;;;;6.00;100.00;95784.22;5070648;28;20060;-62
2022/12/23 05:55:02;;;;;;;8.75;8.15;;;;;;;5.99;100.00;95787.78;5056798;28;20529;-63
2022/12/23 05:57:27;;;;;;;8.15;7.45;;;;;;;5.98;100.00;95783.50;5040645;28;20044;-63
2022/12/23 05:59:52;;;;;;;8.30;7.70;;;;;;;5.98;100.00;95788.72;5056286;28;20059;-63
2022/12/23 06:02:20;;;;;;;9.02;8.32;;;;;;;5.99;100.00;95803.44;5062985;28;20032;-63
2022/12/23 06:04:46;;;;;;;8.43;7.82;;;;;;;5.98;100.00;95810.44;5057167;28;20615;-64
2022/12/23 06:07:11;;;;;;;7.75;7.15;;;;;;;5.98;100.00;95805.22;5062438;28;20108;-64
2022/12/23 06:09:36;;;;;;;12.88;11.73;;;;;;;6.01;100.00;95804.22;5058006;28;20029;-64
2022/12/23 06:12:02;;;;;;;14.05;12.75;;;;;;;6.02;100.00;95803.25;5055509;28;20048;-64
2022/12/23 06:14:27;;;;;;;9.70;9.00;;;;;;;6.08;100.00;95813.25;5058292;28;20035;-64
2022/12/23 06:16:52;;;;;;;12.00;10.90;;;;;;;6.11;100.00;95813.03;5066132;28;20028;-63
2022/12/23 06:19:18;;;;;;;10.73;9.77;;;;;;;6.12;100.00;95812.09;5064439;28;20561;-64
2022/12/23 06:21:44;;;;;;;10.20;9.30;;;;;;;6.09;100.00;95798.44;5068525;28;20036;-70
2022/12/23 06:24:09;;;;;;;11.63;10.57;;;;;;;6.08;100.00;95826.34;5065809;28;20041;-64
2022/12/23 06:26:34;;;;;;;27.10;24.70;;;;;;;6.07;100.00;95818.59;5069729;28;20414;-64
2022/12/23 06:29:00;;;;;;;15.85;14.55;;;;;;;6.03;100.00;95815.38;5057151;28;20036;-63
2022/12/23 06:31:25;;;;;;;16.48;15.07;;;;;;;6.02;100.00;95829.41;5058307;28;20021;-63
2022/12/23 06:33:51;;;;;;;12.57;11.60;;;;;;;6.04;100.00;95842.34;5063453;28;20028;-63
2022/12/23 06:36:16;;;;;;;11.00;10.10;;;;;;;6.05;100.00;95850.09;5060186;28;20062;-63
2022/12/23 06:38:42;;;;;;;15.60;14.30;;;;;;;6.06;100.00;95851.75;5064175;28;20040;-64
2022/12/23 06:41:07;;;;;;;17.92;16.38;;;;;;;6.18;100.00;95852.66;5068691;28;20486;-59
2022/12/23 06:43:32;;;;;;;17.35;15.82;;;;;;;6.14;100.00;95864.28;5066694;28;20397;-62
2022/12/23 06:45:57;;;;;;;16.08;14.65;;;;;;;6.09;100.00;95869.00;5067527;28;20409;-61
2022/12/23 06:48:23;;;;;;;14.13;13.05;;;;;;;6.11;100.00;95856.66;5066825;28;20036;-61
2022/12/23 06:50:48;;;;;;;12.40;11.40;;;;;;;6.11;100.00;95846.19;5047902;28;20090;-61
2022/12/23 06:53:14;;;;;;;14.00;12.90;;;;;;;6.17;100.00;95871.88;5058563;28;20116;-61
2022/12/23 06:55:39;;;;;;;8.43;7.82;;;;;;;6.16;100.00;95844.09;5059943;28;20103;-61
2022/12/23 06:58:04;;;;;;;10.07;9.38;;;;;;;6.45;100.00;95860.28;5069321;28;20036;-61
2022/12/23 07:00:30;;;;;;;13.63;12.45;;;;;;;6.34;100.00;95846.31;5059337;28;20040;-63
2022/12/23 07:02:56;;;;;;;12.98;11.75;;;;;;;6.25;100.00;95834.75;5062678;28;20502;-69
2022/12/23 07:05:21;;;;;;;12.10;11.10;;;;;;;6.28;100.00;95829.28;5064983;28;20076;-69
2022/12/23 07:07:46;;;;;;;12.38;11.20;;;;;;;6.22;100.00;95841.00;5058618;28;20033;-69
2022/12/23 07:10:12;;;;;;;11.98;10.88;;;;;;;6.25;100.00;95835.56;5056833;28;20037;-69
2022/12/23 07:12:38;;;;;;;12.48;11.38;;;;;;;6.26;100.00;95842.44;5055645;28;20029;-69
2022/12/23 07:15:04;;;;;;;13.02;11.80;;;;;;;6.28;100.00;95856.25;5059662;28;20028;-69
2022/12/23 07:17:30;;;;;;;11.85;10.75;;;;;;;6.25;100.00;95869.56;5058135;28;20039;-70
2022/12/23 07:19:55;;;;;;;10.73;9.80;;;;;;;6.38;100.00;95872.09;5066208;28;20044;-65
2022/12/23 07:22:21;;;;;;;12.00;11.00;;;;;;;6.30;100.00;95875.31;5061364;28;20067;-63
2022/12/23 07:24:46;;;;;;;12.70;11.45;;;;;;;6.45;100.00;95885.56;5067228;28;20075;-62
2022/12/23 07:27:11;;;;;;;22.83;19.15;;;;;;;6.96;100.00;95891.47;5069673;28;20052;-62
2022/12/23 07:29:37;;;;;;;21.88;17.17;;;;;;;6.66;100.00;95887.56;5066321;28;20067;-63
2022/12/23 07:32:03;;;;;;;18.38;16.45;;;;;;;6.56;100.00;95895.25;5068958;28;20037;-62
2022/12/23 07:34:28;;;;;;;54.78;23.38;;;;;;;6.49;100.00;95905.31;5054007;28;20090;-62
2022/12/23 07:36:54;;;;;;;44.00;23.63;;;;;;;6.44;100.00;95912.69;5054420;28;20033;-61
2022/12/23 07:39:19;;;;;;;31.10;21.05;;;;;;;6.43;100.00;95904.00;5061619;28;20032;-59
2022/12/23 07:41:44;;;;;;;19.33;17.48;;;;;;;6.61;100.00;95913.25;5070185;28;20025;-64
2022/12/23 07:44:10;;;;;;;13.18;11.98;;;;;;;6.54;100.00;95897.16;5069961;28;20032;-64
2022/12/23 07:46:36;;;;;;;12.05;11.00;;;;;;;6.58;100.00;95898.59;5068788;28;20021;-63
2022/12/23 07:49:01;;;;;;;14.55;13.25;;;;;;;6.46;100.00;95895.09;5069534;28;20029;-63
2022/12/23 07:51:26;;;;;;;16.08;14.43;;;;;;;6.39;100.00;95891.25;5065550;28;20036;-64
2022/12/23 07:53:52;;;;;;;14.18;12.90;;;;;;;6.33;100.00;95889.91;5055359;28;20517;-62
2022/12/23 07:56:17;;;;;;;14.48;13.27;;;;;;;6.47;100.00;95885.47;5069196;28;20417;-64
2022/12/23 07:58:50;;;;;;;17.20;15.60;;;;;;;6.41;100.00;95891.97;5061852;28;20047;-63
2022/12/23 08:01:16;;;;;;;13.38;12.18;;;;;;;6.40;100.00;95885.09;5054350;28;20478;-60
2022/12/23 08:03:42;;;;;;;13.38;12.27;;;;;;;6.41;100.00;95886.75;5053669;28;20418;-60
2022/12/23 08:06:13;;;;;;;14.93;13.48;;;;;;;6.40;100.00;95875.44;5054265;28;20045;-60
2022/12/23 08:08:41;;;;;;;13.35;12.15;;;;;;;6.30;100.00;95885.75;5065420;28;20119;-60
2022/12/23 08:11:08;;;;;;;20.35;18.27;;;;;;;6.24;100.00;95894.03;5059712;28;20036;-60
2022/12/23 08:13:36;;;;;;;19.73;17.98;;;;;;;6.24;100.00;95883.56;5054619;28;20413;-60
2022/12/23 08:16:04;;;;;;;14.50;13.30;;;;;;;6.32;100.00;95898.72;5059289;28;20072;-59
2022/12/23 08:18:31;;;;;;;21.30;19.42;;;;;;;6.49;100.00;95901.91;5059867;28;20839;-60
2022/12/23 08:20:57;;;;;;;13.77;12.68;;;;;;;6.48;100.00;95898.44;5052758;28;20408;-72
2022/12/23 08:23:24;;;;;;;13.65;12.45;;;;;;;6.40;100.00;95900.78;5053043;28;20060;-72
2022/12/23 08:26:17;;;;;;;24.80;22.60;;;;;;;6.39;100.00;95909.56;5062399;28;20556;-70
2022/12/23 08:28:43;;;;;;;33.88;30.45;;;;;;;6.65;100.00;95927.75;5054138;28;20115;-72
2022/12/23 08:31:16;;;;;;;33.42;29.83;;;;;;;6.59;100.00;95924.66;5072362;28;20036;-73
2022/12/23 08:33:43;;;;;;;19.85;17.77;;;;;;;6.85;100.00;95935.00;5055739;28;20078;-71
2022/12/23 08:36:12;;;;;;;22.13;19.92;;;;;;;6.69;100.00;95939.66;5052679;28;20116;-62
2022/12/23 08:38:37;;;;;;;25.92;23.23;;;;;;;6.67;100.00;95952.88;5052987;28;20559;-62
2022/12/23 08:41:08;;;;;;;22.95;20.75;;;;;;;6.69;100.00;95952.75;5052504;28;20041;-63
2022/12/23 08:43:33;;;;;;;24.98;22.50;;;;;;;6.66;100.00;95945.97;5056697;28;20502;-64
2022/12/23 08:45:59;;;;;;;42.55;37.22;;;;;;;6.70;100.00;95954.44;5060910;28;20064;-62
2022/12/23 08:48:24;;;;;;;28.63;25.63;;;;;;;6.77;100.00;95960.06;5069721;28;20032;-63
2022/12/23 08:50:49;;;;;;;21.85;19.75;;;;;;;6.83;100.00;95965.69;5061828;28;20033;-62
2022/12/23 08:53:15;;;;;;;21.42;19.45;;;;;;;6.82;100.00;95969.25;5052477;28;20096;-63
2022/12/23 08:55:42;;;;;;;19.60;17.75;;;;;;;6.86;100.00;95964.63;5063150;28;20443;-62
2022/12/23 08:58:09;;;;;;;18.98;17.15;;;;;;;6.93;100.00;95960.59;5054966;28;20087;-61
2022/12/23 09:00:36;;;;;;;46.17;35.22;;;;;;;6.95;100.00;95956.09;5052211;28;20069;-62
2022/12/23 09:03:02;;;;;;;39.63;30.42;;;;;;;6.99;100.00;95938.38;5052222;28;20036;-62
2022/12/23 09:05:28;;;;;;;24.42;22.00;;;;;;;6.99;100.00;95954.09;5052049;28;20053;-62
2022/12/23 09:07:54;;;;;;;15.35;13.80;;;;;;;7.12;100.00;95941.75;5051784;28;20029;-63
2022/12/23 09:10:19;;;;;;;26.67;24.00;;;;;;;7.20;100.00;95933.31;5052045;28;20044;-63
2022/12/23 09:12:45;;;;;;;25.42;23.05;;;;;;;7.24;100.00;95942.59;5052011;28;20458;-64
2022/12/23 09:15:10;;;;;;;15.35;13.77;;;;;;;7.57;100.00;95956.75;5051926;28;20051;-69
2022/12/23 09:17:36;;;;;;;17.58;13.60;;;;;;;7.50;100.00;95958.13;5065104;28;20104;-62
2022/12/23 09:20:02;;;;;;;16.45;14.98;;;;;;;7.43;100.00;95957.78;5052649;28;20033;-63
2022/12/23 09:22:27;;;;;;;35.83;32.58;;;;;;;7.43;100.00;95925.50;5053635;28;20110;-63
2022/12/23 09:24:54;;;;;;;25.90;23.45;;;;;;;7.50;100.00;95921.47;5059795;28;20040;-64
2022/12/23 09:27:19;;;;;;;23.50;20.58;;;;;;;7.53;100.00;95930.88;5052880;28;20658;-63
2022/12/23 09:29:45;;;;;;;17.65;15.95;;;;;;;7.58;100.00;95933.97;5051888;28;20064;-63
2022/12/23 09:32:10;;;;;;;16.75;14.95;;;;;;;7.81;100.00;95923.50;5069237;28;20037;-61
2022/12/23 09:34:35;;;;;;;17.15;15.30;;;;;;;7.84;100.00;95918.03;5070834;28;20051;-61
2022/12/23 09:37:02;;;;;;;17.40;15.80;;;;;;;7.85;100.00;95910.06;5070441;28;20040;-62
2022/12/23 09:39:27;;;;;;;18.38;16.45;;;;;;;7.86;100.00;95906.47;5070685;28;20036;-65
2022/12/23 09:42:29;;;;;;;19.58;17.67;;;;;;;7.82;100.00;95909.44;5069880;28;20036;-64
2022/12/23 09:45:06;;;;;;;27.15;24.38;;;;;;;7.88;100.00;95911.63;5069128;28;20033;-64
2022/12/23 09:47:32;;;;;;;21.35;19.27;;;;;;;7.97;100.00;95920.56;5068874;28;20044;-64
2022/12/23 09:50:11;;;;;;;20.42;18.63;;;;;;;7.98;100.00;95909.09;5056377;28;20078;-63
2022/12/23 09:52:59;;;;;;;30.30;26.50;;;;;;;8.01;100.00;95930.66;5059410;28;20033;-63
2022/12/23 09:55:46;;;;;;;36.00;32.42;;;;;;;7.99;100.00;95923.88;5051800;28;20025;-67
2022/12/23 09:58:28;;;;;;;40.03;35.95;;;;;;;8.21;100.00;95927.44;5065954;28;20107;-59
2022/12/23 10:01:01;;;;;;;36.80;32.10;;;;;;;8.12;100.00;95915.88;5070412;28;20039;-59
2022/12/23 10:03:37;;;;;;;27.55;24.60;;;;;;;8.08;100.00;95924.94;5069010;28;20039;-59
2022/12/23 10:06:21;;;;;;;29.75;26.08;;;;;;;8.06;100.00;95921.59;5067674;28;20048;-58
2022/12/23 10:08:49;;;;;;;23.63;21.20;;;;;;;8.07;100.00;95923.25;5069443;28;20055;-59
2022/12/23 10:11:14;;;;;;;22.08;19.00;;;;;;;8.03;100.00;95922.69;5068220;28;20044;-71
2022/12/23 10:13:53;;;;;;;25.95;23.15;;;;;;;8.06;100.00;95921.59;5070415;28;20168;-59
2022/12/23 10:16:24;;;;;;;20.15;18.05;;;;;;;8.10;100.00;95928.28;5067925;28;20529;-65
2022/12/23 10:19:21;;;;;;;16.05;14.55;;;;;;;7.96;100.00;95919.69;5068208;28;20063;-66
2022/12/23 10:21:49;;;;;;;13.80;12.60;;;;;;;7.85;100.00;95919.72;5060648;28;20040;-64
2022/12/23 10:24:37;;;;;;;17.63;15.95;;;;;;;7.55;100.00;95927.22;5066533;28;20409;-64
2022/12/23 10:27:44;;;;;;;17.67;15.82;;;;;;;7.40;100.00;95916.09;5055626;28;20056;-64
2022/12/23 10:30:10;;;;;;;18.23;16.42;;;;;;;7.42;100.00;95905.50;5068834;28;20033;-65
2022/12/23 10:33:02;;;;;;;19.40;17.25;;;;;;;7.47;100.00;95913.03;5069857;28;20029;-60
2022/12/23 10:36:11;;;;;;;17.38;15.88;;;;;;;7.30;100.00;95918.59;5071199;28;20047;-71
2022/12/23 10:38:56;;;;;;;22.67;20.65;;;;;;;7.04;100.00;95920.53;5007257;28;20046;-71
2022/12/23 10:41:43;;;;;;;27.07;24.80;;;;;;;6.93;100.00;95929.19;5066399;28;20098;-71
2022/12/23 10:44:54;;;;;;;20.13;18.42;;;;;;;6.89;100.00;95933.00;5059169;28;20410;-71
2022/12/23 10:47:34;;;;;;;16.35;15.05;;;;;;;6.82;100.00;95922.13;4998181;28;20575;-71
2022/12/23 10:50:06;;;;;;;16.85;15.45;;;;;;;6.86;100.00;95923.56;5007266;28;20069;-62
2022/12/23 10:52:35;;;;;;;22.10;20.15;;;;;;;6.96;100.00;95909.78;5034197;28;20044;-63
2022/12/23 10:55:01;;;;;;;18.25;16.58;;;;;;;7.00;100.00;95916.50;5049396;28;20032;-69
2022/12/23 10:57:28;;;;;;;17.77;16.40;;;;;;;6.96;100.00;95912.41;5049811;28;20442;-71
2022/12/23 10:59:53;;;;;;;18.77;17.30;;;;;;;6.91;100.00;95927.63;5049638;28;20556;-70
2022/12/23 11:02:48;;;;;;;16.75;15.40;;;;;;;6.94;100.00;95927.41;5050121;28;20040;-70
2022/12/23 11:05:16;;;;;;;20.15;18.45;;;;;;;6.87;100.00;95930.47;5059785;28;20048;-70
2022/12/23 11:07:43;;;;;;;18.33;16.77;;;;;;;6.88;100.00;95936.56;5064384;28;20025;-70
2022/12/23 11:10:22;;;;;;;18.50;16.90;;;;;;;6.82;100.00;95927.38;5068633;28;20044;-72
2022/12/23 11:12:50;;;;;;;20.13;18.45;;;;;;;6.86;100.00;95938.47;5067348;28;20428;-63
2022/12/23 11:15:32;;;;;;;22.13;20.27;;;;;;;6.91;100.00;95914.53;5068158;28;20182;-62
2022/12/23 11:18:05;;;;;;;58.25;44.30;;;;;;;6.86;100.00;95928.00;5056385;28;20044;-63
2022/12/23 11:20:32;;;;;;;39.88;34.92;;;;;;;6.85;100.00;95915.81;5065685;28;20036;-66
2022/12/23 11:23:01;;;;;;;28.30;25.70;;;;;;;6.87;100.00;95911.34;5067332;28;20032;-65
2022/12/23 11:25:31;;;;;;;21.15;19.13;;;;;;;6.98;100.00;95903.50;5065396;28;20043;-66
2022/12/23 11:28:04;;;;;;;54.83;45.45;;;;;;;7.12;100.00;95906.88;5069209;28;20033;-66
2022/12/23 11:30:34;;;;;;;37.72;33.95;;;;;;;7.09;100.00;95905.31;5064683;28;20025;-58
2022/12/23 11:33:00;;;;;;;30.95;26.48;;;;;;;7.16;100.00;95897.84;5049864;28;20041;-64
2022/12/23 11:35:29;;;;;;;40.95;36.72;;;;;;;7.20;100.00;95896.66;5050734;28;20095;-65
2022/12/23 11:37:57;;;;;;;56.97;47.17;;;;;;;7.31;100.00;95898.47;5050058;28;20041;-67
2022/12/23 11:40:27;;;;;;;34.33;29.83;;;;;;;7.21;100.00;95900.13;5050445;28;20094;-66
2022/12/23 11:43:01;;;;;;;29.23;26.40;;;;;;;7.05;100.00;95900.41;5049862;28;20045;-64
2022/12/23 11:45:30;;;;;;;54.45;48.65;;;;;;;7.19;100.00;95902.03;5050090;28;20124;-68
2022/12/23 11:47:56;;;;;;;30.23;27.13;;;;;;;7.12;100.00;95912.13;5063333;28;20040;-65
2022/12/23 11:50:32;;;;;;;29.00;26.35;;;;;;;6.99;100.00;95915.66;5068942;28;20036;-67
2022/12/23 11:53:10;;;;;;;20.45;18.75;;;;;;;6.93;100.00;95930.97;5066849;28;20044;-66
2022/12/23 11:55:38;;;;;;;22.55;20.50;;;;;;;6.85;100.00;95937.63;5050399;28;20447;-66
2022/12/23 11:58:04;;;;;;;24.73;22.35;;;;;;;6.80;100.00;95937.13;5051351;28;20044;-67
2022/12/23 12:00:41;;;;;;;31.27;27.40;;;;;;;6.93;100.00;95938.81;5050775;28;20079;-68